Hobart Regional Office, Australia
Current Conditions -  °F | °C
As of 6:30 PM on Monday 22 Dec 2014 (Local Time) from YMHB Reporting Station
Broken Clouds Broken Clouds  
Wind Chill: 70°   Ceiling: 25000
Heat Index: 70°   Visibility: 6mi
Dew Point: 55°   Wind: 12mph
Humidity: 60%   Direction: 50°NE
Pressure: 29.85"   Gusts: NA
Location:  42.88°S, 147.32°E
Report Text: YMHB 220730Z 05010KT 9999 FEW035 BKN250 21/13 Q1011
Loading
Personal Weather Stations






























Interactive Weather Map New forecast layout! Learn more

10-Day Weather Forecast

Advertisements
Track Severe Weather on mobile